createdAt,value
2023-01-29T00:00:32.797Z,77.28
2023-01-29T00:11:03.017Z,76.87
2023-01-29T00:21:11.275Z,77.16
2023-01-29T00:31:18.442Z,77.45
2023-01-29T00:41:41.889Z,78.28
2023-01-29T00:52:10.311Z,77.67
2023-01-29T01:02:36.259Z,77.84
2023-01-29T01:12:41.150Z,78.13
2023-01-29T01:22:45.185Z,78.27
2023-01-29T01:32:56.458Z,78.14
2023-01-29T01:43:01.949Z,77.85
2023-01-29T01:53:11.215Z,77.49
2023-01-29T02:03:34.040Z,77.77
2023-01-29T02:13:38.737Z,76.61
2023-01-29T02:24:10.190Z,76.75
2023-01-29T02:34:30.223Z,76.93
2023-01-29T02:45:08.313Z,76.90
2023-01-29T02:55:53.253Z,77.60
2023-01-29T03:06:06.805Z,77.35
2023-01-29T03:16:33.930Z,77.11
2023-01-29T03:26:56.646Z,76.10
2023-01-29T03:37:09.288Z,76.88
2023-01-29T03:47:31.568Z,76.31
2023-01-29T03:57:42.978Z,76.19
2023-01-29T04:07:55.413Z,75.97
2023-01-29T04:17:59.481Z,76.34
2023-01-29T04:28:54.790Z,75.49
2023-01-29T04:39:02.027Z,74.86
2023-01-29T04:49:34.782Z,74.44
2023-01-29T04:59:53.660Z,74.84
2023-01-29T05:09:57.605Z,74.79
2023-01-29T05:20:01.515Z,74.74
2023-01-29T05:30:06.491Z,74.13
2023-01-29T05:40:11.027Z,74.65
2023-01-29T05:50:16.656Z,74.82
2023-01-29T06:00:21.101Z,74.90
2023-01-29T06:10:25.326Z,75.06
2023-01-29T06:20:32.256Z,74.77
2023-01-29T06:30:39.336Z,74.62
2023-01-29T06:40:43.306Z,74.40
2023-01-29T06:50:50.705Z,74.08
2023-01-29T07:00:54.768Z,73.45
2023-01-29T07:11:02.561Z,73.44
2023-01-29T07:21:07.819Z,72.80
2023-01-29T07:31:13.911Z,72.55
2023-01-29T07:41:25.649Z,72.25
2023-01-29T07:51:29.644Z,72.09
2023-01-29T08:01:33.523Z,71.80
2023-01-29T08:11:40.737Z,70.10
2023-01-29T08:21:44.929Z,69.93
2023-01-29T08:31:49.478Z,69.48
2023-01-29T08:41:53.510Z,69.33
2023-01-29T08:51:57.501Z,69.34
2023-01-29T09:02:01.644Z,69.41
2023-01-29T09:12:06.531Z,69.05
2023-01-29T09:22:11.953Z,68.66
2023-01-29T09:32:23.233Z,68.40
2023-01-29T09:42:44.813Z,66.82
2023-01-29T09:53:18.001Z,65.61
2023-01-29T10:03:55.914Z,65.23
2023-01-29T10:14:38.180Z,64.85
2023-01-29T10:24:58.046Z,63.84
2023-01-29T10:35:25.195Z,62.45
2023-01-29T10:45:50.000Z,60.98
2023-01-29T10:55:56.776Z,60.84
2023-01-29T11:06:10.747Z,61.07
2023-01-29T11:16:14.849Z,60.39
2023-01-29T11:26:34.123Z,60.54
2023-01-29T11:36:41.537Z,59.55
2023-01-29T11:47:06.824Z,60.09
2023-01-29T11:57:34.705Z,59.42
2023-01-29T12:07:43.518Z,60.07
2023-01-29T12:18:17.770Z,59.59
2023-01-29T12:28:51.194Z,58.70
2023-01-29T12:38:56.622Z,57.86
2023-01-29T12:49:05.910Z,57.47
2023-01-29T12:59:47.418Z,57.77
2023-01-29T13:10:18.302Z,58.74
2023-01-29T13:21:04.755Z,59.70
2023-01-29T13:31:51.685Z,59.87
2023-01-29T13:42:53.835Z,60.39
2023-01-29T13:53:59.071Z,61.21
2023-01-29T14:04:42.121Z,61.37
2023-01-29T14:15:08.820Z,61.03
2023-01-29T14:25:28.847Z,62.03
2023-01-29T14:36:30.850Z,62.22
2023-01-29T14:47:12.537Z,63.13
2023-01-29T14:57:46.372Z,63.70
2023-01-29T15:08:09.240Z,64.28
2023-01-29T15:18:42.282Z,65.22
2023-01-29T15:29:04.517Z,65.87
2023-01-29T15:39:46.080Z,65.98
2023-01-29T15:49:52.969Z,66.68
2023-01-29T16:00:11.935Z,66.79
2023-01-29T16:10:22.073Z,67.67
2023-01-29T16:20:52.577Z,68.67
2023-01-29T16:31:41.086Z,68.84
2023-01-29T16:42:20.698Z,69.49
2023-01-29T16:52:32.559Z,69.44
2023-01-29T17:02:55.531Z,69.83
2023-01-29T17:13:28.321Z,70.55
2023-01-29T17:23:36.247Z,70.95
2023-01-29T17:33:48.622Z,71.23
2023-01-29T17:44:20.075Z,71.61
2023-01-29T17:54:28.599Z,71.75
2023-01-29T18:04:37.273Z,71.93
2023-01-29T18:15:24.443Z,72.22
2023-01-29T18:26:21.316Z,72.32
2023-01-29T18:36:29.581Z,72.58
2023-01-29T18:46:50.164Z,72.88
2023-01-29T18:57:13.871Z,73.78
2023-01-29T19:08:17.487Z,73.72
2023-01-29T19:18:31.386Z,73.42
2023-01-29T19:29:17.131Z,73.76
2023-01-29T19:39:35.319Z,73.62
2023-01-29T19:49:43.257Z,73.66
2023-01-29T20:00:19.276Z,73.60
2023-01-29T20:10:59.150Z,73.14
2023-01-29T20:21:33.112Z,73.26
2023-01-29T20:32:09.774Z,73.13
2023-01-29T20:42:39.079Z,72.61
2023-01-29T20:52:46.329Z,72.02
2023-01-29T21:03:38.738Z,71.92
2023-01-29T21:13:48.337Z,72.51
2023-01-29T21:23:54.019Z,73.00
2023-01-29T21:34:02.177Z,73.15
2023-01-29T21:44:12.627Z,73.41
2023-01-29T21:54:46.171Z,74.06
2023-01-29T22:05:16.489Z,74.39
2023-01-29T22:16:12.272Z,74.66
2023-01-29T22:27:06.126Z,74.83
2023-01-29T22:37:10.395Z,74.93
2023-01-29T22:47:14.350Z,75.14
2023-01-29T22:57:18.826Z,74.85
2023-01-29T23:07:36.618Z,74.97
2023-01-29T23:17:59.618Z,75.02
2023-01-29T23:28:13.008Z,74.75
2023-01-29T23:39:21.152Z,74.91
2023-01-29T23:49:42.545Z,75.20
2023-01-29T23:59:49.484Z,75.17
